sensor_id;sensor_type;location;lat;lon;timestamp;pressure;altitude;pressure_sealevel;temperature;humidity
8585;BME280;7180;52.742;11.420;2023-07-13T00:00:27;100763.06;;;16.79;99.80
8585;BME280;7180;52.742;11.420;2023-07-13T00:02:52;100779.97;;;16.78;100.00
8585;BME280;7180;52.742;11.420;2023-07-13T00:05:22;100794.22;;;16.77;100.00
8585;BME280;7180;52.742;11.420;2023-07-13T00:07:47;100800.59;;;16.74;100.00
8585;BME280;7180;52.742;11.420;2023-07-13T00:10:13;100796.28;;;16.73;100.00
8585;BME280;7180;52.742;11.420;2023-07-13T00:12:39;100802.41;;;16.74;100.00
8585;BME280;7180;52.742;11.420;2023-07-13T00:15:10;100801.47;;;16.75;100.00
8585;BME280;7180;52.742;11.420;2023-07-13T00:17:37;100799.66;;;16.75;100.00
8585;BME280;7180;52.742;11.420;2023-07-13T00:20:04;100800.34;;;16.77;100.00
8585;BME280;7180;52.742;11.420;2023-07-13T00:22:30;100803.84;;;16.78;100.00
8585;BME280;7180;52.742;11.420;2023-07-13T00:24:55;100798.69;;;16.76;100.00
8585;BME280;7180;52.742;11.420;2023-07-13T00:27:22;100790.72;;;16.65;100.00
8585;BME280;7180;52.742;11.420;2023-07-13T00:29:47;100794.59;;;16.61;100.00
8585;BME280;7180;52.742;11.420;2023-07-13T00:32:13;100800.41;;;16.55;100.00
8585;BME280;7180;52.742;11.420;2023-07-13T00:34:38;100806.44;;;16.57;100.00
8585;BME280;7180;52.742;11.420;2023-07-13T00:37:05;100813.66;;;16.66;100.00
8585;BME280;7180;52.742;11.420;2023-07-13T00:39:32;100811.72;;;16.68;100.00
8585;BME280;7180;52.742;11.420;2023-07-13T00:41:57;100791.31;;;16.69;100.00
8585;BME280;7180;52.742;11.420;2023-07-13T00:44:23;100794.81;;;16.69;100.00
8585;BME280;7180;52.742;11.420;2023-07-13T00:46:48;100792.19;;;16.69;100.00
8585;BME280;7180;52.742;11.420;2023-07-13T00:49:17;100789.28;;;16.61;100.00
8585;BME280;7180;52.742;11.420;2023-07-13T00:52:02;100807.88;;;16.50;100.00
8585;BME280;7180;52.742;11.420;2023-07-13T00:54:34;100823.56;;;16.53;100.00
8585;BME280;7180;52.742;11.420;2023-07-13T00:57:03;100820.19;;;16.51;100.00
8585;BME280;7180;52.742;11.420;2023-07-13T00:59:30;100824.78;;;16.49;100.00
8585;BME280;7180;52.742;11.420;2023-07-13T01:01:56;100819.22;;;16.41;100.00
8585;BME280;7180;52.742;11.420;2023-07-13T01:04:24;100831.63;;;16.40;100.00
8585;BME280;7180;52.742;11.420;2023-07-13T01:06:49;100823.28;;;16.34;100.00
8585;BME280;7180;52.742;11.420;2023-07-13T01:09:15;100828.97;;;16.29;100.00
8585;BME280;7180;52.742;11.420;2023-07-13T01:11:41;100836.31;;;16.26;100.00
8585;BME280;7180;52.742;11.420;2023-07-13T01:14:07;100842.34;;;16.28;100.00
8585;BME280;7180;52.742;11.420;2023-07-13T01:16:34;100837.53;;;16.33;100.00
8585;BME280;7180;52.742;11.420;2023-07-13T01:19:01;100835.84;;;16.32;100.00
8585;BME280;7180;52.742;11.420;2023-07-13T01:21:31;100830.28;;;16.35;100.00
8585;BME280;7180;52.742;11.420;2023-07-13T01:23:57;100837.28;;;16.36;100.00
8585;BME280;7180;52.742;11.420;2023-07-13T01:26:23;100833.44;;;16.40;100.00
8585;BME280;7180;52.742;11.420;2023-07-13T01:28:48;100839.34;;;16.43;100.00
8585;BME280;7180;52.742;11.420;2023-07-13T01:31:13;100837.41;;;16.45;100.00
8585;BME280;7180;52.742;11.420;2023-07-13T01:33:40;100832.09;;;16.45;100.00
8585;BME280;7180;52.742;11.420;2023-07-13T01:36:10;100820.44;;;16.48;100.00
8585;BME280;7180;52.742;11.420;2023-07-13T01:38:36;100815.13;;;16.48;100.00
8585;BME280;7180;52.742;11.420;2023-07-13T01:41:02;100816.19;;;16.45;100.00
8585;BME280;7180;52.742;11.420;2023-07-13T01:43:28;100804.09;;;16.41;100.00
8585;BME280;7180;52.742;11.420;2023-07-13T01:45:53;100796.75;;;16.34;100.00
8585;BME280;7180;52.742;11.420;2023-07-13T01:48:18;100811.00;;;16.33;100.00
8585;BME280;7180;52.742;11.420;2023-07-13T01:50:45;100813.53;;;16.34;100.00
8585;BME280;7180;52.742;11.420;2023-07-13T01:53:10;100812.44;;;16.37;100.00
8585;BME280;7180;52.742;11.420;2023-07-13T01:55:36;100819.22;;;16.41;100.00
8585;BME280;7180;52.742;11.420;2023-07-13T01:58:03;100814.50;;;16.44;100.00
8585;BME280;7180;52.742;11.420;2023-07-13T02:00:29;100813.91;;;16.41;100.00
8585;BME280;7180;52.742;11.420;2023-07-13T02:02:54;100815.56;;;16.42;100.00
8585;BME280;7180;52.742;11.420;2023-07-13T02:05:20;100805.22;;;16.39;100.00
8585;BME280;7180;52.742;11.420;2023-07-13T02:07:45;100807.88;;;16.39;100.00
8585;BME280;7180;52.742;11.420;2023-07-13T02:10:11;100809.53;;;16.29;100.00
8585;BME280;7180;52.742;11.420;2023-07-13T02:12:37;100811.97;;;16.21;100.00
8585;BME280;7180;52.742;11.420;2023-07-13T02:15:03;100808.81;;;16.16;100.00
8585;BME280;7180;52.742;11.420;2023-07-13T02:17:29;100809.75;;;16.04;100.00
8585;BME280;7180;52.742;11.420;2023-07-13T02:19:54;100811.19;;;15.97;100.00
8585;BME280;7180;52.742;11.420;2023-07-13T02:22:20;100828.56;;;15.90;100.00
8585;BME280;7180;52.742;11.420;2023-07-13T02:24:45;100830.94;;;15.82;100.00
8585;BME280;7180;52.742;11.420;2023-07-13T02:27:11;100841.78;;;15.79;100.00
8585;BME280;7180;52.742;11.420;2023-07-13T02:29:36;100853.00;;;15.82;100.00
8585;BME280;7180;52.742;11.420;2023-07-13T02:32:01;100860.00;;;15.83;100.00
8585;BME280;7180;52.742;11.420;2023-07-13T02:34:26;100849.25;;;15.74;100.00
8585;BME280;7180;52.742;11.420;2023-07-13T02:36:52;100866.44;;;15.68;100.00
8585;BME280;7180;52.742;11.420;2023-07-13T02:39:18;100869.34;;;15.65;100.00
8585;BME280;7180;52.742;11.420;2023-07-13T02:41:43;100865.44;;;15.58;100.00
8585;BME280;7180;52.742;11.420;2023-07-13T02:44:08;100872.56;;;15.57;100.00
8585;BME280;7180;52.742;11.420;2023-07-13T02:46:36;100882.59;;;15.65;100.00
8585;BME280;7180;52.742;11.420;2023-07-13T02:49:01;100888.03;;;15.75;100.00
8585;BME280;7180;52.742;11.420;2023-07-13T02:51:27;100885.88;;;15.80;100.00
8585;BME280;7180;52.742;11.420;2023-07-13T02:53:53;100880.56;;;15.80;100.00
8585;BME280;7180;52.742;11.420;2023-07-13T02:56:24;100869.75;;;15.83;100.00
8585;BME280;7180;52.742;11.420;2023-07-13T02:58:50;100855.03;;;15.79;100.00
8585;BME280;7180;52.742;11.420;2023-07-13T03:01:15;100855.16;;;15.77;100.00
8585;BME280;7180;52.742;11.420;2023-07-13T03:03:47;100854.91;;;15.80;100.00
8585;BME280;7180;52.742;11.420;2023-07-13T03:06:12;100855.28;;;15.76;100.00
8585;BME280;7180;52.742;11.420;2023-07-13T03:08:39;100839.81;;;15.70;100.00
8585;BME280;7180;52.742;11.420;2023-07-13T03:11:07;100837.19;;;15.70;100.00
8585;BME280;7180;52.742;11.420;2023-07-13T03:13:33;100821.34;;;15.57;100.00
8585;BME280;7180;52.742;11.420;2023-07-13T03:15:58;100820.81;;;15.41;100.00
8585;BME280;7180;52.742;11.420;2023-07-13T03:18:25;100824.44;;;15.27;100.00
8585;BME280;7180;52.742;11.420;2023-07-13T03:20:50;100833.06;;;15.18;100.00
8585;BME280;7180;52.742;11.420;2023-07-13T03:23:16;100847.50;;;15.14;100.00
8585;BME280;7180;52.742;11.420;2023-07-13T03:25:42;100853.47;;;15.05;100.00
8585;BME280;7180;52.742;11.420;2023-07-13T03:28:07;100852.25;;;14.98;100.00
8585;BME280;7180;52.742;11.420;2023-07-13T03:30:32;100863.88;;;14.96;100.00
8585;BME280;7180;52.742;11.420;2023-07-13T03:32:57;100856.38;;;14.90;100.00
8585;BME280;7180;52.742;11.420;2023-07-13T03:35:23;100860.84;;;14.89;100.00
8585;BME280;7180;52.742;11.420;2023-07-13T03:37:48;100874.78;;;14.91;100.00
8585;BME280;7180;52.742;11.420;2023-07-13T03:40:13;100863.56;;;14.88;100.00
8585;BME280;7180;52.742;11.420;2023-07-13T03:42:39;100874.78;;;14.91;100.00
8585;BME280;7180;52.742;11.420;2023-07-13T03:45:04;100878.72;;;14.98;100.00
8585;BME280;7180;52.742;11.420;2023-07-13T03:47:30;100873.19;;;15.01;100.00
8585;BME280;7180;52.742;11.420;2023-07-13T03:49:55;100869.38;;;15.05;100.00
8585;BME280;7180;52.742;11.420;2023-07-13T03:52:20;100871.56;;;15.11;100.00
8585;BME280;7180;52.742;11.420;2023-07-13T03:54:46;100863.91;;;15.19;100.00
8585;BME280;7180;52.742;11.420;2023-07-13T03:57:11;100875.63;;;15.28;100.00
8585;BME280;7180;52.742;11.420;2023-07-13T03:59:36;100869.78;;;15.35;100.00
8585;BME280;7180;52.742;11.420;2023-07-13T04:02:02;100866.72;;;15.41;100.00
8585;BME280;7180;52.742;11.420;2023-07-13T04:04:29;100851.19;;;15.48;100.00
8585;BME280;7180;52.742;11.420;2023-07-13T04:06:57;100845.94;;;15.59;100.00
8585;BME280;7180;52.742;11.420;2023-07-13T04:09:24;100843.22;;;15.72;100.00
8585;BME280;7180;52.742;11.420;2023-07-13T04:11:49;100842.06;;;15.87;100.00
8585;BME280;7180;52.742;11.420;2023-07-13T04:14:15;100839.81;;;16.15;100.00
8585;BME280;7180;52.742;11.420;2023-07-13T04:16:41;100836.44;;;16.80;100.00
8585;BME280;7180;52.742;11.420;2023-07-13T04:19:07;100829.13;;;17.99;100.00
8585;BME280;7180;52.742;11.420;2023-07-13T04:21:33;100719.31;;;18.86;97.84
8585;BME280;7180;52.742;11.420;2023-07-13T04:23:59;100602.28;;;19.30;92.50
8585;BME280;7180;52.742;11.420;2023-07-13T04:26:24;100547.63;;;19.17;89.66
8585;BME280;7180;52.742;11.420;2023-07-13T04:28:51;100494.91;;;19.01;87.49
8585;BME280;7180;52.742;11.420;2023-07-13T04:31:16;100492.78;;;18.49;86.97
8585;BME280;7180;52.742;11.420;2023-07-13T04:33:42;100509.03;;;17.89;87.83
8585;BME280;7180;52.742;11.420;2023-07-13T04:36:08;100596.94;;;17.97;89.00
8585;BME280;7180;52.742;11.420;2023-07-13T04:38:35;100639.78;;;17.94;89.97
8585;BME280;7180;52.742;11.420;2023-07-13T04:41:03;100660.34;;;19.55;89.39
8585;BME280;7180;52.742;11.420;2023-07-13T04:43:29;100516.47;;;20.95;83.63
8585;BME280;7180;52.742;11.420;2023-07-13T04:45:55;100320.69;;;21.58;77.75
8585;BME280;7180;52.742;11.420;2023-07-13T04:48:21;100294.31;;;21.88;75.73
8585;BME280;7180;52.742;11.420;2023-07-13T04:50:47;100203.84;;;22.69;72.56
8585;BME280;7180;52.742;11.420;2023-07-13T04:53:13;100145.34;;;22.03;71.87
8585;BME280;7180;52.742;11.420;2023-07-13T04:55:38;100345.09;;;22.28;74.02
8585;BME280;7180;52.742;11.420;2023-07-13T04:58:04;100179.06;;;23.57;69.87
8585;BME280;7180;52.742;11.420;2023-07-13T05:00:30;100124.72;;;23.99;68.10
8585;BME280;7180;52.742;11.420;2023-07-13T05:02:57;100062.34;;;22.11;69.55
8585;BME280;7180;52.742;11.420;2023-07-13T05:05:23;100276.50;;;22.19;72.30
8585;BME280;7180;52.742;11.420;2023-07-13T05:07:49;100187.44;;;21.62;71.35
8585;BME280;7180;52.742;11.420;2023-07-13T05:10:15;100287.66;;;20.01;75.06
8585;BME280;7180;52.742;11.420;2023-07-13T05:12:41;100465.38;;;19.31;78.36
8585;BME280;7180;52.742;11.420;2023-07-13T05:15:06;100506.91;;;19.24;79.41
8585;BME280;7180;52.742;11.420;2023-07-13T05:17:32;100558.84;;;19.20;80.28
8585;BME280;7180;52.742;11.420;2023-07-13T05:19:57;100580.28;;;19.65;80.75
8585;BME280;7180;52.742;11.420;2023-07-13T05:22:22;100620.97;;;20.66;80.43
8585;BME280;7180;52.742;11.420;2023-07-13T05:24:48;100440.53;;;21.39;76.30
8585;BME280;7180;52.742;11.420;2023-07-13T05:27:13;100303.06;;;22.91;72.06
8585;BME280;7180;52.742;11.420;2023-07-13T05:29:38;100134.06;;;22.54;69.20
8585;BME280;7180;52.742;11.420;2023-07-13T05:32:04;100126.34;;;23.04;68.37
8585;BME280;7180;52.742;11.420;2023-07-13T05:34:29;100219.22;;;24.02;67.91
8585;BME280;7180;52.742;11.420;2023-07-13T05:36:54;100125.69;;;24.77;65.50
8585;BME280;7180;52.742;11.420;2023-07-13T05:39:20;99998.81;;;24.67;63.62
8585;BME280;7180;52.742;11.420;2023-07-13T05:41:45;100017.88;;;25.96;61.77
8585;BME280;7180;52.742;11.420;2023-07-13T05:44:10;100106.34;;;25.58;63.42
8585;BME280;7180;52.742;11.420;2023-07-13T05:46:36;99850.25;;;26.52;58.65
8585;BME280;7180;52.742;11.420;2023-07-13T05:49:01;99988.13;;;26.17;61.23
8585;BME280;7180;52.742;11.420;2023-07-13T05:51:26;99936.53;;;26.85;59.31
8585;BME280;7180;52.742;11.420;2023-07-13T05:53:51;99968.59;;;24.86;61.97
8585;BME280;7180;52.742;11.420;2023-07-13T05:56:17;100037.13;;;25.45;61.71
8585;BME280;7180;52.742;11.420;2023-07-13T05:58:42;99956.28;;;24.98;61.28
8585;BME280;7180;52.742;11.420;2023-07-13T06:01:12;99863.19;;;23.93;61.52
8585;BME280;7180;52.742;11.420;2023-07-13T06:03:40;99982.31;;;25.66;60.17
8585;BME280;7180;52.742;11.420;2023-07-13T06:06:06;99903.16;;;26.53;58.22
8585;BME280;7180;52.742;11.420;2023-07-13T06:08:32;99808.97;;;27.98;55.46
8585;BME280;7180;52.742;11.420;2023-07-13T06:11:09;99857.47;;;27.48;56.53
8585;BME280;7180;52.742;11.420;2023-07-13T06:13:35;99798.25;;;28.34;54.33
8585;BME280;7180;52.742;11.420;2023-07-13T06:16:01;99785.88;;;28.02;54.45
8585;BME280;7180;52.742;11.420;2023-07-13T06:18:29;99753.00;;;27.11;55.20
8585;BME280;7180;52.742;11.420;2023-07-13T06:20:54;99694.53;;;27.61;53.60
8585;BME280;7180;52.742;11.420;2023-07-13T06:23:19;99793.91;;;28.51;53.36
8585;BME280;7180;52.742;11.420;2023-07-13T06:25:45;99667.56;;;27.79;52.60
8585;BME280;7180;52.742;11.420;2023-07-13T06:28:10;99621.38;;;27.13;53.45
8585;BME280;7180;52.742;11.420;2023-07-13T06:30:38;99761.06;;;27.80;53.14
8585;BME280;7180;52.742;11.420;2023-07-13T06:33:03;99684.03;;;28.56;51.07
8585;BME280;7180;52.742;11.420;2023-07-13T06:35:28;99661.16;;;27.74;51.78
8585;BME280;7180;52.742;11.420;2023-07-13T06:37:54;99677.84;;;28.49;50.96
8585;BME280;7180;52.742;11.420;2023-07-13T06:40:19;99738.34;;;26.24;55.01
8585;BME280;7180;52.742;11.420;2023-07-13T06:42:44;99629.03;;;26.85;52.19
8585;BME280;7180;52.742;11.420;2023-07-13T06:45:09;99871.94;;;25.12;56.96
8585;BME280;7180;52.742;11.420;2023-07-13T06:47:35;99941.41;;;24.53;58.09
8585;BME280;7180;52.742;11.420;2023-07-13T06:50:00;100052.22;;;23.99;59.87
8585;BME280;7180;52.742;11.420;2023-07-13T06:52:26;100114.34;;;23.96;60.54
8585;BME280;7180;52.742;11.420;2023-07-13T06:54:51;100190.88;;;24.14;61.29
8585;BME280;7180;52.742;11.420;2023-07-13T06:57:16;100094.44;;;24.19;59.80
8585;BME280;7180;52.742;11.420;2023-07-13T06:59:41;99897.72;;;24.17;57.15
8585;BME280;7180;52.742;11.420;2023-07-13T07:02:09;99928.31;;;25.33;55.89
8585;BME280;7180;52.742;11.420;2023-07-13T07:04:35;99826.00;;;26.46;53.02
8585;BME280;7180;52.742;11.420;2023-07-13T07:07:00;99862.34;;;27.64;52.15
8585;BME280;7180;52.742;11.420;2023-07-13T07:09:25;99654.25;;;28.02;49.29
8585;BME280;7180;52.742;11.420;2023-07-13T07:11:50;99595.94;;;26.72;50.69
8585;BME280;7180;52.742;11.420;2023-07-13T07:14:16;99717.75;;;27.69;50.32
8585;BME280;7180;52.742;11.420;2023-07-13T07:16:41;99604.22;;;27.01;50.46
8585;BME280;7180;52.742;11.420;2023-07-13T07:19:06;99645.84;;;26.36;51.51
8585;BME280;7180;52.742;11.420;2023-07-13T07:21:31;99581.25;;;26.61;49.95
8585;BME280;7180;52.742;11.420;2023-07-13T07:23:57;99592.59;;;25.61;51.58
8585;BME280;7180;52.742;11.420;2023-07-13T07:26:22;99744.38;;;24.87;54.00
8585;BME280;7180;52.742;11.420;2023-07-13T07:28:48;99764.66;;;24.49;54.27
8585;BME280;7180;52.742;11.420;2023-07-13T07:31:13;99822.94;;;23.36;56.53
8585;BME280;7180;52.742;11.420;2023-07-13T07:33:38;100011.28;;;23.46;58.24
8585;BME280;7180;52.742;11.420;2023-07-13T07:36:04;100050.38;;;25.26;55.83
8585;BME280;7180;52.742;11.420;2023-07-13T07:38:29;99941.19;;;25.92;54.30
8585;BME280;7180;52.742;11.420;2023-07-13T07:40:54;99903.53;;;26.90;52.67
8585;BME280;7180;52.742;11.420;2023-07-13T07:43:20;99753.28;;;25.81;52.11
8585;BME280;7180;52.742;11.420;2023-07-13T07:45:45;99894.63;;;24.69;55.56
8585;BME280;7180;52.742;11.420;2023-07-13T07:48:11;99955.63;;;24.96;55.73
8585;BME280;7180;52.742;11.420;2023-07-13T07:50:37;99897.88;;;24.86;54.95
8585;BME280;7180;52.742;11.420;2023-07-13T07:53:04;99873.84;;;24.29;55.34
8585;BME280;7180;52.742;11.420;2023-07-13T07:55:33;99952.06;;;24.89;55.34
8585;BME280;7180;52.742;11.420;2023-07-13T07:57:58;99891.09;;;24.68;55.19
8585;BME280;7180;52.742;11.420;2023-07-13T08:00:24;99857.28;;;24.81;54.27
8585;BME280;7180;52.742;11.420;2023-07-13T08:02:49;99938.56;;;25.17;54.35
8585;BME280;7180;52.742;11.420;2023-07-13T08:05:15;99928.25;;;25.20;54.08
8585;BME280;7180;52.742;11.420;2023-07-13T08:07:40;99822.34;;;25.34;53.31
8585;BME280;7180;52.742;11.420;2023-07-13T08:10:06;99887.28;;;25.18;54.27
8585;BME280;7180;52.742;11.420;2023-07-13T08:12:38;99891.00;;;25.24;54.50
8585;BME280;7180;52.742;11.420;2023-07-13T08:15:05;99801.38;;;24.70;53.71
8585;BME280;7180;52.742;11.420;2023-07-13T08:17:30;99785.94;;;24.78;53.39
8585;BME280;7180;52.742;11.420;2023-07-13T08:19:56;99810.97;;;24.51;54.16
8585;BME280;7180;52.742;11.420;2023-07-13T08:22:21;99788.38;;;24.39;53.60
8585;BME280;7180;52.742;11.420;2023-07-13T08:24:46;99893.03;;;24.05;55.35
8585;BME280;7180;52.742;11.420;2023-07-13T08:27:20;99884.38;;;24.51;54.54
8585;BME280;7180;52.742;11.420;2023-07-13T08:29:47;99905.38;;;24.69;54.29
8585;BME280;7180;52.742;11.420;2023-07-13T08:32:12;99887.97;;;24.65;54.60
8585;BME280;7180;52.742;11.420;2023-07-13T08:34:38;99911.00;;;23.68;56.15
8585;BME280;7180;52.742;11.420;2023-07-13T08:37:04;100035.06;;;24.71;55.75
8585;BME280;7180;52.742;11.420;2023-07-13T08:39:30;99947.13;;;24.93;54.81
8585;BME280;7180;52.742;11.420;2023-07-13T08:41:59;99864.38;;;24.33;54.77
8585;BME280;7180;52.742;11.420;2023-07-13T08:44:41;99935.25;;;24.32;55.66
8585;BME280;7180;52.742;11.420;2023-07-13T08:47:14;99943.28;;;24.32;55.63
8585;BME280;7180;52.742;11.420;2023-07-13T08:49:40;99997.63;;;24.97;55.07
8585;BME280;7180;52.742;11.420;2023-07-13T08:54:50;100002.78;;;25.26;55.01
8585;BME280;7180;52.742;11.420;2023-07-13T08:57:21;99930.81;;;25.35;53.49
8585;BME280;7180;52.742;11.420;2023-07-13T08:59:50;99841.56;;;25.25;52.68
8585;BME280;7180;52.742;11.420;2023-07-13T09:02:26;99879.84;;;24.86;53.85
8585;BME280;7180;52.742;11.420;2023-07-13T09:04:59;99929.97;;;25.75;53.22
8585;BME280;7180;52.742;11.420;2023-07-13T09:07:45;99924.72;;;25.60;53.28
8585;BME280;7180;52.742;11.420;2023-07-13T09:10:32;99847.28;;;25.69;52.33
8585;BME280;7180;52.742;11.420;2023-07-13T09:15:47;99682.66;;;25.39;50.75
8585;BME280;7180;52.742;11.420;2023-07-13T09:18:15;99694.44;;;26.17;49.54
8585;BME280;7180;52.742;11.420;2023-07-13T09:20:49;99685.69;;;26.28;49.75
8585;BME280;7180;52.742;11.420;2023-07-13T09:23:19;99729.03;;;25.67;51.17
8585;BME280;7180;52.742;11.420;2023-07-13T09:25:47;99755.56;;;26.23;50.57
8585;BME280;7180;52.742;11.420;2023-07-13T09:28:19;99706.78;;;25.07;52.00
8585;BME280;7180;52.742;11.420;2023-07-13T09:31:09;99794.94;;;25.11;52.28
8585;BME280;7180;52.742;11.420;2023-07-13T09:33:38;99682.75;;;24.92;51.41
8585;BME280;7180;52.742;11.420;2023-07-13T09:38:42;99767.84;;;24.65;52.52
8585;BME280;7180;52.742;11.420;2023-07-13T09:44:18;99678.78;;;24.28;51.29
8585;BME280;7180;52.742;11.420;2023-07-13T09:46:54;99778.06;;;24.42;52.26
8585;BME280;7180;52.742;11.420;2023-07-13T09:49:24;99951.88;;;24.42;54.52
8585;BME280;7180;52.742;11.420;2023-07-13T09:52:00;99957.06;;;24.92;53.70
8585;BME280;7180;52.742;11.420;2023-07-13T09:54:27;99810.22;;;25.04;51.89
8585;BME280;7180;52.742;11.420;2023-07-13T09:56:57;99812.41;;;25.35;51.29
8585;BME280;7180;52.742;11.420;2023-07-13T09:59:26;99804.19;;;24.89;51.76
8585;BME280;7180;52.742;11.420;2023-07-13T10:01:52;99788.34;;;25.14;51.50
8585;BME280;7180;52.742;11.420;2023-07-13T10:04:18;99766.88;;;24.39;52.46
8585;BME280;7180;52.742;11.420;2023-07-13T10:06:45;99778.28;;;24.82;51.63
8585;BME280;7180;52.742;11.420;2023-07-13T10:09:15;99862.44;;;25.16;51.81
8585;BME280;7180;52.742;11.420;2023-07-13T10:11:41;99829.16;;;25.30;51.50
8585;BME280;7180;52.742;11.420;2023-07-13T10:14:17;99704.34;;;25.18;50.55
8585;BME280;7180;52.742;11.420;2023-07-13T10:16:44;99753.91;;;24.55;51.81
8585;BME280;7180;52.742;11.420;2023-07-13T10:21:53;99724.41;;;24.62;51.03
8585;BME280;7180;52.742;11.420;2023-07-13T10:26:57;99825.22;;;24.79;52.19
8585;BME280;7180;52.742;11.420;2023-07-13T10:29:26;99752.72;;;24.64;51.61
8585;BME280;7180;52.742;11.420;2023-07-13T10:31:52;99752.16;;;24.35;51.73
8585;BME280;7180;52.742;11.420;2023-07-13T10:34:18;99790.00;;;23.85;52.92
8585;BME280;7180;52.742;11.420;2023-07-13T10:36:46;99747.81;;;23.79;52.25
8585;BME280;7180;52.742;11.420;2023-07-13T10:39:27;99871.16;;;23.65;53.95
8585;BME280;7180;52.742;11.420;2023-07-13T10:41:59;99866.28;;;23.54;54.14
8585;BME280;7180;52.742;11.420;2023-07-13T10:44:28;99937.38;;;23.80;54.50
8585;BME280;7180;52.742;11.420;2023-07-13T10:47:03;99943.63;;;24.22;53.82
8585;BME280;7180;52.742;11.420;2023-07-13T10:49:32;99917.94;;;24.62;52.55
8585;BME280;7180;52.742;11.420;2023-07-13T10:51:58;99835.06;;;24.38;52.30
8585;BME280;7180;52.742;11.420;2023-07-13T10:54:31;99869.66;;;24.75;51.86
8585;BME280;7180;52.742;11.420;2023-07-13T10:57:14;99783.53;;;24.62;51.64
8585;BME280;7180;52.742;11.420;2023-07-13T10:59:42;99735.16;;;24.62;50.76
8585;BME280;7180;52.742;11.420;2023-07-13T11:02:25;99737.50;;;24.37;51.03
8585;BME280;7180;52.742;11.420;2023-07-13T11:04:53;99801.22;;;24.16;52.06
8585;BME280;7180;52.742;11.420;2023-07-13T11:07:22;99818.63;;;23.99;52.64
8585;BME280;7180;52.742;11.420;2023-07-13T11:09:59;99895.00;;;23.96;53.40
8585;BME280;7180;52.742;11.420;2023-07-13T11:12:26;99852.16;;;24.03;52.83
8585;BME280;7180;52.742;11.420;2023-07-13T11:19:51;99897.78;;;24.73;52.24
8585;BME280;7180;52.742;11.420;2023-07-13T11:22:22;99812.06;;;24.97;51.15
8585;BME280;7180;52.742;11.420;2023-07-13T11:24:56;99917.13;;;25.30;51.91
8585;BME280;7180;52.742;11.420;2023-07-13T11:33:14;99742.81;;;25.06;50.73
8585;BME280;7180;52.742;11.420;2023-07-13T11:38:21;99794.72;;;25.99;49.40
8585;BME280;7180;52.742;11.420;2023-07-13T11:40:48;99760.72;;;26.18;49.03
8585;BME280;7180;52.742;11.420;2023-07-13T11:43:16;99733.38;;;26.34;48.63
8585;BME280;7180;52.742;11.420;2023-07-13T11:45:43;99715.59;;;26.07;49.14
8585;BME280;7180;52.742;11.420;2023-07-13T11:48:18;99800.75;;;26.08;50.07
8585;BME280;7180;52.742;11.420;2023-07-13T11:50:56;99831.59;;;26.38;49.78
8585;BME280;7180;52.742;11.420;2023-07-13T11:53:26;99807.97;;;26.27;50.01
8585;BME280;7180;52.742;11.420;2023-07-13T11:55:52;99731.09;;;25.98;49.51
8585;BME280;7180;52.742;11.420;2023-07-13T11:58:23;99674.38;;;25.87;49.19
8585;BME280;7180;52.742;11.420;2023-07-13T12:00:49;99696.06;;;25.98;49.09
8585;BME280;7180;52.742;11.420;2023-07-13T12:03:19;99735.91;;;26.16;49.41
8585;BME280;7180;52.742;11.420;2023-07-13T12:05:56;99703.34;;;25.91;49.35
8585;BME280;7180;52.742;11.420;2023-07-13T12:08:22;99766.13;;;25.92;50.06
8585;BME280;7180;52.742;11.420;2023-07-13T12:10:47;99770.25;;;25.75;50.07
8585;BME280;7180;52.742;11.420;2023-07-13T12:13:13;99659.22;;;25.07;49.96
8585;BME280;7180;52.742;11.420;2023-07-13T12:15:43;99822.53;;;25.26;51.59
8585;BME280;7180;52.742;11.420;2023-07-13T12:18:14;99817.50;;;25.71;50.66
8585;BME280;7180;52.742;11.420;2023-07-13T12:20:40;99715.19;;;25.57;50.13
8585;BME280;7180;52.742;11.420;2023-07-13T12:23:20;99747.06;;;25.80;49.90
8585;BME280;7180;52.742;11.420;2023-07-13T12:25:47;99751.63;;;25.93;49.63
8585;BME280;7180;52.742;11.420;2023-07-13T12:28:39;99734.66;;;25.59;50.03
8585;BME280;7180;52.742;11.420;2023-07-13T12:31:26;99745.63;;;25.64;50.08
8585;BME280;7180;52.742;11.420;2023-07-13T12:33:59;99745.22;;;25.94;49.16
8585;BME280;7180;52.742;11.420;2023-07-13T12:36:25;99760.13;;;26.22;49.34
8585;BME280;7180;52.742;11.420;2023-07-13T12:38:51;99709.25;;;26.52;48.18
8585;BME280;7180;52.742;11.420;2023-07-13T12:41:16;99645.06;;;26.29;48.11
8585;BME280;7180;52.742;11.420;2023-07-13T12:43:44;99716.91;;;26.68;48.40
8585;BME280;7180;52.742;11.420;2023-07-13T12:46:21;99592.88;;;26.11;47.82
8585;BME280;7180;52.742;11.420;2023-07-13T12:48:51;99620.28;;;25.82;48.93
8585;BME280;7180;52.742;11.420;2023-07-13T12:51:20;99698.53;;;26.26;48.49
8585;BME280;7180;52.742;11.420;2023-07-13T12:53:49;99665.78;;;26.35;47.86
8585;BME280;7180;52.742;11.420;2023-07-13T12:56:22;99622.91;;;26.14;48.16
8585;BME280;7180;52.742;11.420;2023-07-13T12:58:49;99610.38;;;25.76;48.48
8585;BME280;7180;52.742;11.420;2023-07-13T13:01:21;99594.03;;;25.12;49.06
8585;BME280;7180;52.742;11.420;2023-07-13T13:03:50;99671.66;;;25.34;49.61
8585;BME280;7180;52.742;11.420;2023-07-13T13:08:46;99678.69;;;25.88;48.28
8585;BME280;7180;52.742;11.420;2023-07-13T13:11:14;99646.75;;;26.11;47.61
8585;BME280;7180;52.742;11.420;2023-07-13T13:13:41;99564.13;;;25.92;47.33
8585;BME280;7180;52.742;11.420;2023-07-13T13:16:12;99586.72;;;25.84;47.71
8585;BME280;7180;52.742;11.420;2023-07-13T13:18:39;99632.97;;;25.68;48.70
8585;BME280;7180;52.742;11.420;2023-07-13T13:21:04;99606.03;;;25.68;47.85
8585;BME280;7180;52.742;11.420;2023-07-13T13:23:30;99600.44;;;25.76;48.00
8585;BME280;7180;52.742;11.420;2023-07-13T13:25:55;99644.75;;;25.28;48.88
8585;BME280;7180;52.742;11.420;2023-07-13T13:28:21;99689.94;;;25.45;49.31
8585;BME280;7180;52.742;11.420;2023-07-13T13:30:48;99697.34;;;25.96;48.36
8585;BME280;7180;52.742;11.420;2023-07-13T13:33:16;99662.13;;;26.04;48.07
8585;BME280;7180;52.742;11.420;2023-07-13T13:35:43;99609.72;;;25.87;47.89